This is the latest recevied weather packets stored in our database for station/object WX4HP-13. If no packets are shown the sender has not sent any weather packets the latest 10 day(s).
| Time | Temp. | Humidity | Pressure | Rain* | Wind** | Luminosity | Snow |
|---|---|---|---|---|---|---|---|
| 1777477798 | 21.67° C | 85% | 1012.6 hPa | 0 mm | - | - | - |
| 1777477496 | 21.67° C | 86% | 1012.6 hPa | 0 mm | - | - | - |
| 1777477196 | 21.11° C | 87% | 1012.8 hPa | 0 mm | - | - | - |
| 1777476895 | 21.11° C | 85% | 1012.8 hPa | 0 mm | - | - | - |
| 1777476595 | 21.11° C | 85% | 1012.9 hPa | 0 mm | - | - | - |
| 1777476295 | 21.67° C | 84% | 1012.8 hPa | 0 mm | - | - | - |
| 1777475995 | 21.67° C | 85% | 1012.8 hPa | 0 mm | - | - | - |
| 1777475696 | 21.67° C | 85% | 1012.8 hPa | 0 mm | - | - | - |
| 1777475396 | 21.11° C | 86% | 1012.9 hPa | 0 mm | - | - | - |
| 1777475096 | 20.56° C | 87% | 1013.1 hPa | 0 mm | - | - | - |
| 1777474795 | 21.11° C | 86% | 1013 hPa | 0 mm | - | - | - |
| 1777474495 | 21.11° C | 87% | 1013 hPa | 0 mm | - | - | - |
| 1777474195 | 21.11° C | 85% | 1013 hPa | 0 mm | - | - | - |
| 1777473896 | 21.11° C | 86% | 1013 hPa | 0 mm | - | - | - |
| 1777473596 | 20.56° C | 87% | 1013.2 hPa | 0 mm | - | - | - |
| 1777473296 | 20° C | 89% | 1013.4 hPa | 0 mm | - | - | - |
| 1777472995 | 19.44° C | 90% | 1013.5 hPa | 0 mm | - | - | - |
| 1777472695 | 19.44° C | 90% | 1013.5 hPa | 0 mm | - | - | - |
| 1777472395 | 19.44° C | 90% | 1013.6 hPa | 0 mm | - | - | - |
| 1777472095 | 19.44° C | 89% | 1013.6 hPa | 0 mm | - | - | - |
| 1777471795 | 20° C | 88% | 1013.6 hPa | 0 mm | - | - | - |
| 1777471495 | 19.44° C | 89% | 1013.5 hPa | 0 mm | - | - | - |
| 1777470896 | 18.89° C | 91% | 1013.6 hPa | 0 mm | - | - | - |
| 1777470595 | 18.33° C | 92% | 1013.5 hPa | 0 mm | - | - | - |
| 1777470295 | 18.33° C | 95% | 1013.5 hPa | 0 mm | - | - | - |
* Rain latest hour (hover to see other rain measurements)
** Current wind speed in m/s (hover to see current wind gust speed)